Terminal Aerodrome Forecast
Issued by NWS Jackson, MS

Home | Current Version | Previous Version | Text Only | Print | Product List | Glossary On
Versions: 1 2 3 4 5 6 7 8 9 10 11 12 13 14
000
FTUS44 KMEG 172300 RRA
TAFTUP
TAF
KTUP 172342Z 1800/1824 14005KT P6SM FEW050
     FM180700 14006KT P6SM VCSH BKN035 OVC100
     FM181500 10009KT P6SM VCSH BKN050
     FM182100 07009KT P6SM FEW050=

USA.gov is the U.S. government's official web portal to all federal, state and local government web resources and services.